Time,TemperatureF,DewpointF,PressureIn,WindDirection,WindDirectionDegrees,WindSpeedMPH,WindSpeedGustMPH,Humidity,HourlyPrecipIn,Conditions,Clouds,dailyrainin,SoftwareType,DateUTC
2013-01-16 00:00:00,22.6,16.8,30.14,South,180,0.7,2.3,78,0.00,RA,,0.00,WeatherDisplay:10.37,2013-01-16 05:00:00,
2013-01-16 00:01:00,22.5,16.6,30.13,South,180,0.7,2.3,78,0.00,RA,,0.00,WeatherDisplay:10.37,2013-01-16 05:01:00,
2013-01-16 00:07:00,22.5,16.6,30.14,South,180,0.7,2.3,78,0.00,RA,,0.00,WeatherDisplay:10.37,2013-01-16 05:07:00,
2013-01-16 00:12:00,22.5,16.6,30.14,South,180,1.7,3.5,78,0.00,CLR,,0.00,WeatherDisplay:10.37,2013-01-16 05:12:00,
2013-01-16 00:17:00,22.5,16.6,30.14,South,180,0.7,3.5,78,0.00,CLR,,0.00,WeatherDisplay:10.37,2013-01-16 05:17:00,
2013-01-16 00:22:00,22.8,17.0,30.14,South,180,2.4,3.5,78,0.00,CLR,,0.00,WeatherDisplay:10.37,2013-01-16 05:22:00,
2013-01-16 00:27:00,23.0,16.9,30.15,South,180,0.7,2.3,77,0.00,CLR,,0.00,WeatherDisplay:10.37,2013-01-16 05:27:00,
2013-01-16 00:32:00,23.0,16.9,30.16,South,180,0.0,1.1,77,0.00,CLR,,0.00,WeatherDisplay:10.37,2013-01-16 05:32:00,
2013-01-16 00:37:00,23.4,17.5,30.15,South,180,0.0,1.1,78,0.00,CLR,,0.00,WeatherDisplay:10.37,2013-01-16 05:37:00,
2013-01-16 00:42:00,23.2,17.3,30.16,South,180,0.0,0.0,78,0.00,CLR,,0.00,WeatherDisplay:10.37,2013-01-16 05:42:00,
2013-01-16 00:47:00,23.9,18.0,30.17,South,180,0.0,1.1,78,0.00,CLR,,0.00,WeatherDisplay:10.37,2013-01-16 05:47:00,
2013-01-16 00:52:00,23.4,17.5,30.17,South,180,0.7,1.1,78,0.00,CLR,,0.00,WeatherDisplay:10.37,2013-01-16 05:52:00,
2013-01-16 00:57:00,22.6,17.1,30.17,South,180,0.7,2.3,79,0.00,CLR,,0.00,WeatherDisplay:10.37,2013-01-16 05:57:00,
2013-01-16 01:02:00,22.3,16.5,30.16,South,180,0.7,1.1,78,0.00,CLR,,0.00,WeatherDisplay:10.37,2013-01-16 06:02:00,
2013-01-16 01:07:00,21.9,16.1,30.15,South,180,0.7,2.3,78,0.00,CLR,,0.00,WeatherDisplay:10.37,2013-01-16 06:07:00,
2013-01-16 01:12:00,21.9,16.1,30.15,South,180,1.7,2.3,78,0.00,CLR,,0.00,WeatherDisplay:10.37,2013-01-16 06:12:00,
2013-01-16 01:17:00,21.9,16.1,30.14,South,180,1.7,3.3,78,0.00,CLR,,0.00,WeatherDisplay:10.37,2013-01-16 06:17:00,
2013-01-16 01:22:00,21.7,15.9,30.14,South,180,1.7,1.7,78,0.00,CLR,,0.00,WeatherDisplay:10.37,2013-01-16 06:22:00,
2013-01-16 01:27:00,21.7,15.9,30.13,South,180,0.0,1.1,78,0.00,CLR,,0.00,WeatherDisplay:10.37,2013-01-16 06:27:00,
2013-01-16 01:32:00,21.6,15.8,30.13,South,180,0.0,1.1,78,0.00,CLR,,0.00,WeatherDisplay:10.37,2013-01-16 06:32:00,
2013-01-16 01:37:00,21.2,15.4,30.14,South,180,0.7,1.1,78,0.00,CLR,,0.00,WeatherDisplay:10.37,2013-01-16 06:37:00,
2013-01-16 01:42:00,21.2,15.4,30.13,South,180,2.4,3.5,78,0.00,CLR,,0.00,WeatherDisplay:10.37,2013-01-16 06:42:00,
2013-01-16 01:47:00,21.0,15.8,30.12,South,180,0.7,1.1,80,0.00,CLR,,0.00,WeatherDisplay:10.37,2013-01-16 06:47:00,
2013-01-16 01:52:00,21.0,15.8,30.11,South,180,0.0,1.1,80,0.00,CLR,,0.00,WeatherDisplay:10.37,2013-01-16 06:52:00,
2013-01-16 01:57:00,21.2,15.7,30.12,South,180,0.0,1.1,79,0.00,CLR,,0.00,WeatherDisplay:10.37,2013-01-16 06:57:00,
2013-01-16 02:02:00,21.9,16.7,30.12,South,180,0.0,1.1,80,0.00,CLR,,0.00,WeatherDisplay:10.37,2013-01-16 07:02:00,
2013-01-16 02:07:00,23.0,17.7,30.12,South,180,0.0,1.1,80,0.00,CLR,,0.00,WeatherDisplay:10.37,2013-01-16 07:07:00,
2013-01-16 02:12:00,23.4,18.1,30.11,South,180,0.7,1.1,80,0.00,CLR,,0.00,WeatherDisplay:10.37,2013-01-16 07:12:00,
2013-01-16 02:17:00,22.8,17.9,30.12,South,180,0.7,1.1,81,0.00,CLR,,0.00,WeatherDisplay:10.37,2013-01-16 07:17:00,
2013-01-16 02:22:00,22.5,17.5,30.12,South,180,0.0,1.1,81,0.00,CLR,,0.00,WeatherDisplay:10.37,2013-01-16 07:22:00,
2013-01-16 02:27:00,22.3,17.3,30.12,South,180,0.0,0.0,81,0.00,CLR,,0.00,WeatherDisplay:10.37,2013-01-16 07:27:00,
2013-01-16 02:32:00,21.9,17.0,30.12,South,180,0.0,1.1,81,0.00,CLR,,0.00,WeatherDisplay:10.37,2013-01-16 07:32:00,
2013-01-16 02:37:00,21.2,16.0,30.12,South,180,0.0,0.0,80,0.00,CLR,,0.00,WeatherDisplay:10.37,2013-01-16 07:37:00,
2013-01-16 02:42:00,20.8,15.9,30.13,South,180,0.0,1.1,81,0.00,CLR,,0.00,WeatherDisplay:10.37,2013-01-16 07:42:00,
2013-01-16 02:47:00,20.5,15.6,30.12,South,180,0.0,0.0,81,0.00,CLR,,0.00,WeatherDisplay:10.37,2013-01-16 07:47:00,
2013-01-16 02:52:00,20.3,15.1,30.12,South,180,0.0,1.1,80,0.00,CLR,,0.00,WeatherDisplay:10.37,2013-01-16 07:52:00,
2013-01-16 02:57:00,19.9,14.8,30.12,South,180,0.0,0.0,80,0.00,CLR,,0.00,WeatherDisplay:10.37,2013-01-16 07:57:00,
2013-01-16 03:02:00,19.8,14.6,30.12,South,180,0.0,1.1,80,0.00,CLR,,0.00,WeatherDisplay:10.37,2013-01-16 08:02:00,
2013-01-16 03:07:00,19.6,14.4,30.12,South,180,0.0,0.0,80,0.00,CLR,,0.00,WeatherDisplay:10.37,2013-01-16 08:07:00,
2013-01-16 03:12:00,19.6,14.4,30.12,South,180,0.0,1.1,80,0.00,CLR,,0.00,WeatherDisplay:10.37,2013-01-16 08:12:00,
2013-01-16 03:17:00,19.4,14.2,30.11,South,180,0.0,0.0,80,0.00,CLR,,0.00,WeatherDisplay:10.37,2013-01-16 08:17:00,
2013-01-16 03:22:00,19.2,13.2,30.12,South,180,0.0,1.1,77,0.00,CLR,,0.00,WeatherDisplay:10.37,2013-01-16 08:22:00,
2013-01-16 03:27:00,19.2,13.2,30.12,South,180,0.0,1.1,77,0.00,CLR,,0.00,WeatherDisplay:10.37,2013-01-16 08:27:00,
2013-01-16 03:32:00,19.4,14.5,30.11,South,180,0.7,2.3,81,0.00,CLR,,0.00,WeatherDisplay:10.37,2013-01-16 08:32:00,
2013-01-16 03:37:00,19.6,14.7,30.11,South,180,0.0,1.1,81,0.00,CLR,,0.00,WeatherDisplay:10.37,2013-01-16 08:37:00,
2013-01-16 03:42:00,19.6,15.0,30.12,South,180,0.0,1.1,82,0.00,CLR,,0.00,WeatherDisplay:10.37,2013-01-16 08:42:00,
2013-01-16 03:47:00,19.8,15.2,30.11,South,180,0.7,1.1,82,0.00,CLR,,0.00,WeatherDisplay:10.37,2013-01-16 08:47:00,
2013-01-16 03:52:00,19.8,15.4,30.12,South,180,0.0,1.1,83,0.00,CLR,,0.00,WeatherDisplay:10.37,2013-01-16 08:52:00,
2013-01-16 03:57:00,20.7,16.6,30.12,South,180,0.0,1.1,84,0.00,CLR,,0.00,WeatherDisplay:10.37,2013-01-16 08:57:00,
2013-01-16 04:03:00,20.7,16.6,30.12,South,180,0.7,1.1,84,0.00,CLR,,0.00,WeatherDisplay:10.37,2013-01-16 09:03:00,
2013-01-16 04:08:00,20.1,16.1,30.11,South,180,0.7,1.1,84,0.00,CLR,,0.00,WeatherDisplay:10.37,2013-01-16 09:08:00,
2013-01-16 04:13:00,19.8,15.7,30.11,South,180,0.0,1.1,84,0.00,CLR,,0.00,WeatherDisplay:10.37,2013-01-16 09:13:00,
2013-01-16 04:18:00,19.9,16.2,30.11,South,180,0.0,1.1,85,0.00,CLR,,0.00,WeatherDisplay:10.37,2013-01-16 09:18:00,
2013-01-16 04:21:00,34.9,17.7,29.82,West,270,15.0,29.0,49,0.00,CLR,CLR,0.00,WeatherDisplay:10.37,2013-01-16 09:21:00,
2013-01-16 04:22:00,34.9,17.7,29.82,West,270,15.0,0.0,49,0.00,CLR,CLR,0.00,WeatherDisplay:10.37,2013-01-16 09:22:00,
2013-01-16 04:23:00,19.8,16.0,30.11,South,180,0.0,1.1,85,0.00,CLR,,0.00,WeatherDisplay:10.37,2013-01-16 09:23:00,
2013-01-16 04:24:00,34.9,17.7,29.82,West,270,15.0,0.0,49,0.00,CLR,CLR,0.00,WeatherDisplay:10.37,2013-01-16 09:24:00,
2013-01-16 04:25:00,34.9,17.7,29.82,West,270,15.0,0.0,49,0.00,CLR,CLR,0.00,WeatherDisplay:10.37,2013-01-16 09:25:00,
2013-01-16 04:28:00,19.8,16.0,30.10,South,180,0.0,1.1,85,0.00,CLR,,0.00,WeatherDisplay:10.37,2013-01-16 09:28:00,
2013-01-16 04:33:00,21.4,17.3,30.10,South,180,0.0,0.0,84,0.00,CLR,,0.00,WeatherDisplay:10.37,2013-01-16 09:33:00,
2013-01-16 04:38:00,21.6,17.5,30.09,South,180,0.7,1.1,84,0.00,CLR,,0.00,WeatherDisplay:10.37,2013-01-16 09:38:00,
2013-01-16 04:43:00,20.7,16.9,30.10,South,180,0.7,1.7,85,0.00,CLR,,0.00,WeatherDisplay:10.37,2013-01-16 09:43:00,
2013-01-16 04:48:00,20.8,17.0,30.09,South,180,0.0,1.1,85,0.00,CLR,,0.00,WeatherDisplay:10.37,2013-01-16 09:48:00,
2013-01-16 04:53:00,22.6,18.8,30.09,South,180,0.0,1.1,85,0.00,CLR,,0.00,WeatherDisplay:10.37,2013-01-16 09:53:00,
2013-01-16 04:58:00,22.8,19.0,30.09,South,180,0.0,1.1,85,0.00,CLR,,0.00,WeatherDisplay:10.37,2013-01-16 09:58:00,
2013-01-16 05:03:00,23.2,19.1,30.09,South,180,0.7,2.3,84,0.00,CLR,,0.00,WeatherDisplay:10.37,2013-01-16 10:03:00,
2013-01-16 05:08:00,23.5,19.4,30.08,South,180,0.7,2.3,84,0.00,CLR,,0.00,WeatherDisplay:10.37,2013-01-16 10:08:00,
2013-01-16 05:13:00,24.1,19.9,30.08,South,180,0.7,2.3,84,0.00,CLR,,0.00,WeatherDisplay:10.37,2013-01-16 10:13:00,
2013-01-16 05:18:00,23.5,19.4,30.08,South,180,0.7,2.3,84,0.00,CLR,,0.00,WeatherDisplay:10.37,2013-01-16 10:18:00,
2013-01-16 05:23:00,23.0,18.9,30.08,South,180,0.7,2.3,84,0.00,CLR,,0.00,WeatherDisplay:10.37,2013-01-16 10:23:00,
2013-01-16 05:28:00,23.4,19.0,30.07,South,180,0.0,1.7,83,0.00,CLR,,0.00,WeatherDisplay:10.37,2013-01-16 10:28:00,
2013-01-16 05:33:00,23.7,19.3,30.07,South,180,0.0,1.1,83,0.00,CLR,,0.00,WeatherDisplay:10.37,2013-01-16 10:33:00,
2013-01-16 05:38:00,23.7,19.3,30.06,South,180,0.0,1.1,83,0.00,CLR,,0.00,WeatherDisplay:10.37,2013-01-16 10:38:00,
2013-01-16 05:43:00,24.8,20.4,30.07,South,180,0.7,1.1,83,0.00,CLR,,0.00,WeatherDisplay:10.37,2013-01-16 10:43:00,
2013-01-16 05:48:00,24.1,19.7,30.07,South,180,0.7,1.1,83,0.00,CLR,,0.00,WeatherDisplay:10.37,2013-01-16 10:48:00,
2013-01-16 05:53:00,23.2,18.2,30.06,South,180,0.0,1.1,81,0.00,CLR,,0.00,WeatherDisplay:10.37,2013-01-16 10:53:00,
2013-01-16 05:58:00,22.8,17.9,30.06,South,180,0.0,1.1,81,0.00,CLR,,0.00,WeatherDisplay:10.37,2013-01-16 10:58:00,
2013-01-16 06:03:00,23.4,18.4,30.05,South,180,0.7,1.1,81,0.00,CLR,,0.00,WeatherDisplay:10.37,2013-01-16 11:03:00,
2013-01-16 06:08:00,24.1,19.1,30.05,South,180,1.7,2.3,81,0.00,CLR,,0.00,WeatherDisplay:10.37,2013-01-16 11:08:00,
2013-01-16 06:13:00,24.1,19.4,30.05,South,180,3.3,3.5,82,0.00,CLR,,0.00,WeatherDisplay:10.37,2013-01-16 11:13:00,
2013-01-16 06:18:00,23.4,18.4,30.05,South,180,2.4,4.6,81,0.00,CLR,,0.00,WeatherDisplay:10.37,2013-01-16 11:18:00,
2013-01-16 06:23:00,23.4,18.1,30.05,South,180,3.3,4.6,80,0.00,CLR,,0.00,WeatherDisplay:10.37,2013-01-16 11:23:00,
2013-01-16 06:28:00,23.0,17.5,30.04,South,180,3.3,5.8,79,0.00,CLR,,0.00,WeatherDisplay:10.37,2013-01-16 11:28:00,
2013-01-16 06:33:00,22.6,17.4,30.04,South,180,4.0,5.8,80,0.00,CLR,,0.00,WeatherDisplay:10.37,2013-01-16 11:33:00,
2013-01-16 06:38:00,22.6,17.1,30.04,South,180,4.0,5.8,79,0.00,CLR,,0.00,WeatherDisplay:10.37,2013-01-16 11:38:00,
2013-01-16 06:43:00,23.0,17.2,30.04,South,180,3.3,4.6,78,0.00,CLR,,0.00,WeatherDisplay:10.37,2013-01-16 11:43:00,
2013-01-16 06:48:00,23.2,17.6,30.04,South,180,3.3,4.6,79,0.00,CLR,,0.00,WeatherDisplay:10.37,2013-01-16 11:48:00,
2013-01-16 06:53:00,23.2,17.6,30.04,South,180,3.3,5.8,79,0.00,CLR,,0.00,WeatherDisplay:10.37,2013-01-16 11:53:00,
2013-01-16 06:58:00,23.0,17.2,30.03,South,180,3.3,5.8,78,0.00,CLR,,0.00,WeatherDisplay:10.37,2013-01-16 11:58:00,
2013-01-16 07:03:00,22.8,17.3,30.03,South,180,3.3,6.9,79,0.00,CLR,,0.00,WeatherDisplay:10.37,2013-01-16 12:03:00,
2013-01-16 07:08:00,22.8,17.3,30.04,South,180,4.7,6.9,79,0.00,CLR,,0.00,WeatherDisplay:10.37,2013-01-16 12:08:00,
2013-01-16 07:13:00,22.8,17.3,30.04,South,180,4.7,8.1,79,0.00,CLR,,0.00,WeatherDisplay:10.37,2013-01-16 12:13:00,
2013-01-16 07:18:00,22.8,17.0,30.04,South,180,4.7,8.1,78,0.00,CLR,,0.00,WeatherDisplay:10.37,2013-01-16 12:18:00,
2013-01-16 07:23:00,22.8,17.0,30.04,SSW,202,5.7,9.2,78,0.00,CLR,,0.00,WeatherDisplay:10.37,2013-01-16 12:23:00,
2013-01-16 07:28:00,22.8,17.0,30.04,South,180,5.7,5.8,78,0.00,CLR,,0.00,WeatherDisplay:10.37,2013-01-16 12:28:00,
2013-01-16 07:33:00,23.0,16.9,30.04,South,180,5.7,6.9,77,0.00,CLR,,0.00,WeatherDisplay:10.37,2013-01-16 12:33:00,
2013-01-16 07:38:00,23.0,16.9,30.03,SW,225,5.7,8.1,77,0.00,CLR,,0.00,WeatherDisplay:10.37,2013-01-16 12:38:00,
2013-01-16 07:43:00,23.0,16.9,30.03,South,180,5.7,6.9,77,0.00,CLR,,0.00,WeatherDisplay:10.37,2013-01-16 12:43:00,
2013-01-16 07:48:00,23.0,16.9,30.04,SW,225,3.3,6.9,77,0.00,CLR,,0.00,WeatherDisplay:10.37,2013-01-16 12:48:00,
2013-01-16 07:53:00,23.0,16.9,30.04,SW,225,5.7,8.8,77,0.00,CLR,,0.00,WeatherDisplay:10.37,2013-01-16 12:53:00,
2013-01-16 07:58:00,23.0,16.9,30.04,SW,225,5.7,8.1,77,0.00,CLR,,0.00,WeatherDisplay:10.37,2013-01-16 12:58:00,
2013-01-16 08:03:00,23.0,16.9,30.04,SW,225,8.1,9.2,77,0.00,CLR,,0.00,WeatherDisplay:10.37,2013-01-16 13:03:00,
2013-01-16 08:08:00,22.6,16.8,30.03,SW,225,7.4,10.4,78,0.00,CLR,,0.00,WeatherDisplay:10.37,2013-01-16 13:08:00,
2013-01-16 08:13:00,22.5,16.6,30.03,SW,225,6.4,9.2,78,0.00,CLR,,0.00,WeatherDisplay:10.37,2013-01-16 13:13:00,
2013-01-16 08:18:00,22.5,16.6,30.03,SW,225,7.4,11.5,78,0.00,CLR,,0.00,WeatherDisplay:10.37,2013-01-16 13:18:00,
2013-01-16 08:23:00,22.6,16.8,30.03,SW,225,6.4,10.4,78,0.00,CLR,,0.00,WeatherDisplay:10.37,2013-01-16 13:23:00,
2013-01-16 08:28:00,22.8,17.3,30.03,SW,225,6.4,9.2,79,0.00,CLR,,0.00,WeatherDisplay:10.37,2013-01-16 13:28:00,
2013-01-16 08:33:00,22.8,17.3,30.03,SW,225,7.4,11.5,79,0.00,CLR,,0.00,WeatherDisplay:10.37,2013-01-16 13:33:00,
2013-01-16 08:38:00,22.8,17.3,30.03,South,180,6.4,9.2,79,0.00,CLR,,0.00,WeatherDisplay:10.37,2013-01-16 13:38:00,
2013-01-16 08:43:00,23.2,17.3,30.02,SW,225,5.7,6.9,78,0.00,CLR,,0.00,WeatherDisplay:10.37,2013-01-16 13:43:00,
2013-01-16 08:48:00,23.5,17.7,30.02,SW,225,4.7,9.2,78,0.00,CLR,,0.00,WeatherDisplay:10.37,2013-01-16 13:48:00,
2013-01-16 08:53:00,23.9,18.0,30.01,SW,225,4.7,9.2,78,0.00,CLR,,0.00,WeatherDisplay:10.37,2013-01-16 13:53:00,
2013-01-16 08:58:00,24.1,17.9,30.01,SW,225,4.7,8.1,77,0.00,CLR,,0.00,WeatherDisplay:10.37,2013-01-16 13:58:00,
2013-01-16 09:03:00,24.3,18.1,30.00,SW,225,5.7,9.2,77,0.00,CLR,,0.00,WeatherDisplay:10.37,2013-01-16 14:03:00,
2013-01-16 09:08:00,24.6,18.4,29.99,SW,225,8.8,12.1,77,0.00,CLR,,0.00,WeatherDisplay:10.37,2013-01-16 14:08:00,
2013-01-16 09:13:00,25.0,18.2,29.99,SW,225,8.1,10.4,75,0.00,CLR,,0.00,WeatherDisplay:10.37,2013-01-16 14:13:00,
2013-01-16 09:18:00,25.0,17.9,29.99,SW,225,5.7,9.2,74,0.00,CLR,,0.00,WeatherDisplay:10.37,2013-01-16 14:18:00,
2013-01-16 09:23:00,25.3,18.2,29.99,SW,225,8.1,9.2,74,0.00,CLR,,0.00,WeatherDisplay:10.37,2013-01-16 14:23:00,
2013-01-16 09:28:00,25.5,18.4,29.99,SW,225,7.4,11.5,74,0.00,CLR,,0.00,WeatherDisplay:10.37,2013-01-16 14:28:00,
2013-01-16 09:33:00,25.9,18.7,29.99,SW,225,8.8,11.5,74,0.00,CLR,,0.00,WeatherDisplay:10.37,2013-01-16 14:33:00,
2013-01-16 09:38:00,25.9,18.4,29.99,SW,225,6.4,9.2,73,0.00,CLR,,0.00,WeatherDisplay:10.37,2013-01-16 14:38:00,
2013-01-16 09:43:00,26.1,18.6,29.99,SW,225,8.1,11.5,73,0.00,CLR,,0.00,WeatherDisplay:10.37,2013-01-16 14:43:00,
2013-01-16 09:48:00,26.1,18.6,29.99,SW,225,8.8,12.7,73,0.00,CLR,,0.00,WeatherDisplay:10.37,2013-01-16 14:48:00,
2013-01-16 09:53:00,26.6,18.8,30.00,SW,225,8.1,9.2,72,0.00,CLR,,0.00,WeatherDisplay:10.37,2013-01-16 14:53:00,
2013-01-16 09:58:00,26.8,19.0,29.99,SW,225,8.8,13.8,72,0.00,CLR,,0.00,WeatherDisplay:10.37,2013-01-16 14:58:00,
2013-01-16 10:03:00,27.0,18.8,29.99,SW,225,3.3,9.2,71,0.00,CLR,,0.00,WeatherDisplay:10.37,2013-01-16 15:03:00,
2013-01-16 10:08:00,27.7,19.5,29.97,SW,225,7.4,9.2,71,0.00,CLR,,0.00,WeatherDisplay:10.37,2013-01-16 15:08:00,
2013-01-16 10:13:00,27.9,19.7,29.96,SW,225,10.4,16.1,71,0.00,CLR,,0.00,WeatherDisplay:10.37,2013-01-16 15:13:00,
2013-01-16 10:18:00,27.7,19.2,29.96,WSW,248,7.4,16.1,70,0.00,CLR,,0.00,WeatherDisplay:10.37,2013-01-16 15:18:00,
2013-01-16 10:23:00,28.4,21.5,29.95,SW,225,7.4,13.8,75,0.00,CLR,,0.00,WeatherDisplay:10.37,2013-01-16 15:23:00,
2013-01-16 10:28:00,28.6,21.3,29.95,West,270,9.7,15.0,74,0.00,CLR,,0.00,WeatherDisplay:10.37,2013-01-16 15:28:00,
2013-01-16 10:33:00,28.6,21.0,29.95,West,270,8.1,13.8,73,0.00,CLR,,0.00,WeatherDisplay:10.37,2013-01-16 15:33:00,
2013-01-16 10:38:00,28.9,21.4,29.95,West,270,11.4,17.3,73,0.00,CLR,,0.00,WeatherDisplay:10.37,2013-01-16 15:38:00,
2013-01-16 10:43:00,29.8,22.2,29.95,West,270,9.7,12.7,73,0.00,CLR,,0.00,WeatherDisplay:10.37,2013-01-16 15:43:00,
2013-01-16 10:48:00,29.7,21.1,29.94,West,270,13.8,20.7,70,0.00,CLR,,0.00,WeatherDisplay:10.37,2013-01-16 15:48:00,
2013-01-16 10:53:00,29.5,20.6,29.94,West,270,9.7,16.1,69,0.00,CLR,,0.00,WeatherDisplay:10.37,2013-01-16 15:53:00,
2013-01-16 10:58:00,29.7,20.4,29.93,West,270,12.8,17.3,68,0.00,CLR,,0.00,WeatherDisplay:10.37,2013-01-16 15:58:00,
2013-01-16 11:03:00,29.7,20.4,29.93,West,270,11.4,20.7,68,0.00,CLR,,0.00,WeatherDisplay:10.37,2013-01-16 16:03:00,
2013-01-16 11:08:00,29.7,20.0,29.93,West,270,10.4,15.0,67,0.00,CLR,,0.00,WeatherDisplay:10.37,2013-01-16 16:08:00,
2013-01-16 11:13:00,30.4,20.4,29.93,West,270,10.4,15.0,66,0.00,CLR,,0.00,WeatherDisplay:10.37,2013-01-16 16:13:00,
2013-01-16 11:18:00,30.4,19.3,29.93,West,270,7.4,18.4,63,0.00,CLR,,0.00,WeatherDisplay:10.37,2013-01-16 16:18:00,
2013-01-16 11:23:00,30.7,18.5,29.92,West,270,13.8,18.4,60,0.00,CLR,,0.00,WeatherDisplay:10.37,2013-01-16 16:23:00,
2013-01-16 11:28:00,30.4,16.5,29.92,West,270,12.1,21.9,56,0.00,CLR,,0.00,WeatherDisplay:10.37,2013-01-16 16:28:00,
2013-01-16 11:33:00,30.7,15.2,29.93,West,270,11.4,19.6,52,0.00,CLR,,0.00,WeatherDisplay:10.37,2013-01-16 16:33:00,
2013-01-16 11:38:00,30.9,13.5,29.93,West,270,16.1,19.6,48,0.00,CLR,,0.00,WeatherDisplay:10.37,2013-01-16 16:38:00,
2013-01-16 11:43:00,31.1,13.7,29.92,West,270,8.8,13.8,48,0.00,CLR,,0.00,WeatherDisplay:10.37,2013-01-16 16:43:00,
2013-01-16 11:48:00,32.4,14.8,29.91,West,270,7.4,15.0,48,0.00,CLR,,0.00,WeatherDisplay:10.37,2013-01-16 16:48:00,
2013-01-16 11:53:00,32.7,14.2,29.91,West,270,8.1,15.0,46,0.00,CLR,,0.00,WeatherDisplay:10.37,2013-01-16 16:53:00,
2013-01-16 11:58:00,32.7,14.2,29.91,West,270,10.4,13.8,46,0.00,CLR,,0.00,WeatherDisplay:10.37,2013-01-16 16:58:00,
2013-01-16 12:03:00,32.7,13.7,29.89,West,270,9.7,16.1,45,0.00,CLR,,0.00,WeatherDisplay:10.37,2013-01-16 17:03:00,
2013-01-16 12:08:00,33.4,13.8,29.88,West,270,8.1,12.7,44,0.00,CLR,,0.00,WeatherDisplay:10.37,2013-01-16 17:08:00,
2013-01-16 12:13:00,34.2,14.0,29.88,West,270,10.4,15.0,43,0.00,CLR,,0.00,WeatherDisplay:10.37,2013-01-16 17:13:00,
2013-01-16 12:18:00,34.0,13.3,29.87,West,270,15.4,15.4,42,0.00,CLR,,0.00,WeatherDisplay:10.37,2013-01-16 17:18:00,
2013-01-16 12:23:00,33.8,9.6,29.86,West,270,16.1,23.0,36,0.00,CLR,,0.00,WeatherDisplay:10.37,2013-01-16 17:23:00,
2013-01-16 12:28:00,33.4,8.7,29.85,West,270,13.8,19.6,35,0.00,CLR,,0.00,WeatherDisplay:10.37,2013-01-16 17:28:00,
2013-01-16 12:33:00,33.3,8.5,29.85,West,270,18.5,28.8,35,0.00,CLR,,0.00,WeatherDisplay:10.37,2013-01-16 17:33:00,
2013-01-16 12:38:00,33.3,8.5,29.85,West,270,11.4,18.4,35,0.00,CLR,,0.00,WeatherDisplay:10.37,2013-01-16 17:38:00,
2013-01-16 12:43:00,34.0,9.8,29.85,West,270,12.1,23.0,36,0.00,CLR,,0.00,WeatherDisplay:10.37,2013-01-16 17:43:00,
2013-01-16 12:48:00,33.8,10.2,29.84,West,270,12.8,17.3,37,0.00,CLR,,0.00,WeatherDisplay:10.37,2013-01-16 17:48:00,
2013-01-16 12:53:00,34.5,10.9,29.83,West,270,12.1,17.3,37,0.00,CLR,,0.00,WeatherDisplay:10.37,2013-01-16 17:53:00,
2013-01-16 12:58:00,34.2,10.6,29.82,West,270,12.8,17.3,37,0.00,CLR,,0.00,WeatherDisplay:10.37,2013-01-16 17:58:00,
2013-01-16 13:03:00,34.2,10.6,29.82,SW,225,18.5,31.1,37,0.00,CLR,,0.00,WeatherDisplay:10.37,2013-01-16 18:03:00,
2013-01-16 13:08:00,34.3,11.9,29.82,South,180,16.8,23.0,39,0.00,CLR,,0.00,WeatherDisplay:10.37,2013-01-16 18:08:00,
2013-01-16 13:13:00,34.2,11.2,29.81,South,180,13.8,21.9,38,0.00,CLR,,0.00,WeatherDisplay:10.37,2013-01-16 18:13:00,
2013-01-16 13:18:00,34.2,11.7,29.81,South,180,15.4,23.0,39,0.00,CLR,,0.00,WeatherDisplay:10.37,2013-01-16 18:18:00,
2013-01-16 13:23:00,34.2,12.3,29.80,South,180,14.5,23.0,40,0.00,CLR,,0.00,WeatherDisplay:10.37,2013-01-16 18:23:00,
2013-01-16 13:28:00,34.9,14.1,29.80,South,180,10.4,23.0,42,0.00,CLR,,0.00,WeatherDisplay:10.37,2013-01-16 18:28:00,
2013-01-16 13:33:00,35.8,14.3,29.80,South,180,20.2,20.2,41,0.00,CLR,,0.00,WeatherDisplay:10.37,2013-01-16 18:33:00,
2013-01-16 13:38:00,35.6,14.2,29.80,SE,135,20.2,25.3,41,0.00,CLR,,0.00,WeatherDisplay:10.37,2013-01-16 18:38:00,
2013-01-16 13:43:00,35.1,14.2,29.80,South,180,20.2,28.8,42,0.00,CLR,,0.00,WeatherDisplay:10.37,2013-01-16 18:43:00,
2013-01-16 13:48:00,34.7,13.9,29.79,South,180,14.5,24.2,42,0.00,CLR,,0.00,WeatherDisplay:10.37,2013-01-16 18:48:00,
2013-01-16 13:53:00,35.1,14.2,29.79,South,180,20.9,25.3,42,0.00,CLR,,0.00,WeatherDisplay:10.37,2013-01-16 18:53:00,
2013-01-16 13:58:00,35.4,14.6,29.79,South,180,15.4,26.5,42,0.00,CLR,,0.00,WeatherDisplay:10.37,2013-01-16 18:58:00,
2013-01-16 14:03:00,35.8,14.3,29.79,South,180,16.8,20.7,41,0.00,CLR,,0.00,WeatherDisplay:10.37,2013-01-16 19:03:00,
2013-01-16 14:08:00,36.0,15.1,29.79,South,180,12.8,22.5,42,0.00,CLR,,0.00,WeatherDisplay:10.37,2013-01-16 19:08:00,
2013-01-16 14:13:00,35.4,14.6,29.79,WSW,248,16.8,28.8,42,0.00,CLR,,0.00,WeatherDisplay:10.37,2013-01-16 19:13:00,
2013-01-16 14:18:00,35.1,14.8,29.79,West,270,14.5,28.8,43,0.00,CLR,,0.00,WeatherDisplay:10.37,2013-01-16 19:18:00,
2013-01-16 14:23:00,34.7,15.0,29.80,West,270,17.8,23.5,44,0.00,CLR,,0.00,WeatherDisplay:10.37,2013-01-16 19:23:00,
2013-01-16 14:28:00,34.3,14.7,29.80,West,270,13.8,21.9,44,0.00,CLR,,0.00,WeatherDisplay:10.37,2013-01-16 19:28:00,
2013-01-16 14:33:00,34.5,14.8,29.79,West,270,17.8,24.2,44,0.00,CLR,,0.00,WeatherDisplay:10.37,2013-01-16 19:33:00,
2013-01-16 14:38:00,34.3,15.2,29.79,NW,315,12.1,19.6,45,0.00,CLR,,0.00,WeatherDisplay:10.37,2013-01-16 19:38:00,
2013-01-16 14:43:00,35.6,15.8,29.80,NW,315,16.8,28.8,44,0.00,CLR,,0.00,WeatherDisplay:10.37,2013-01-16 19:43:00,
2013-01-16 14:49:00,35.6,15.8,29.78,NW,315,13.8,23.0,44,0.00,CLR,,0.00,WeatherDisplay:10.37,2013-01-16 19:49:00,
2013-01-16 14:54:00,36.1,16.3,29.78,NW,315,14.5,20.7,44,0.00,CLR,,0.00,WeatherDisplay:10.37,2013-01-16 19:54:00,
2013-01-16 14:59:00,36.3,16.5,29.77,NW,315,17.8,26.5,44,0.00,CLR,,0.00,WeatherDisplay:10.37,2013-01-16 19:59:00,
2013-01-16 15:04:00,36.1,16.3,29.78,NW,315,9.7,17.3,44,0.00,CLR,,0.00,WeatherDisplay:10.37,2013-01-16 20:04:00,
2013-01-16 15:09:00,36.5,16.1,29.78,NW,315,15.4,29.9,43,0.00,CLR,,0.00,WeatherDisplay:10.37,2013-01-16 20:09:00,
2013-01-16 15:14:00,36.1,16.3,29.78,NW,315,16.8,20.7,44,0.00,CLR,,0.00,WeatherDisplay:10.37,2013-01-16 20:14:00,
2013-01-16 15:19:00,35.6,15.8,29.78,NW,315,16.1,24.2,44,0.00,CLR,,0.00,WeatherDisplay:10.37,2013-01-16 20:19:00,
2013-01-16 15:24:00,35.2,16.0,29.78,NW,315,16.1,31.1,45,0.00,CLR,,0.00,WeatherDisplay:10.37,2013-01-16 20:24:00,
2013-01-16 15:29:00,35.1,15.8,29.77,NW,315,12.1,21.9,45,0.00,CLR,,0.00,WeatherDisplay:10.37,2013-01-16 20:29:00,
2013-01-16 15:34:00,35.1,16.3,29.77,NW,315,16.8,23.0,46,0.00,CLR,,0.00,WeatherDisplay:10.37,2013-01-16 20:34:00,
2013-01-16 15:39:00,34.9,16.2,29.77,NW,315,13.8,25.3,46,0.00,CLR,,0.00,WeatherDisplay:10.37,2013-01-16 20:39:00,
2013-01-16 15:44:00,34.9,16.7,29.77,NW,315,15.4,18.4,47,0.00,CLR,,0.00,WeatherDisplay:10.37,2013-01-16 20:44:00,
2013-01-16 15:49:00,34.9,16.7,29.78,NW,315,13.8,18.4,47,0.00,CLR,,0.00,WeatherDisplay:10.37,2013-01-16 20:49:00,
2013-01-16 15:54:00,35.1,16.8,29.78,West,270,10.4,17.3,47,0.00,CLR,,0.00,WeatherDisplay:10.37,2013-01-16 20:54:00,
2013-01-16 15:59:00,35.1,16.8,29.78,West,270,13.8,20.7,47,0.00,CLR,,0.00,WeatherDisplay:10.37,2013-01-16 20:59:00,
2013-01-16 16:04:00,34.9,17.2,29.78,West,270,11.4,23.0,48,0.00,CLR,,0.00,WeatherDisplay:10.37,2013-01-16 21:04:00,
2013-01-16 16:09:00,35.1,17.3,29.78,West,270,13.8,17.3,48,0.00,CLR,,0.00,WeatherDisplay:10.37,2013-01-16 21:09:00,
2013-01-16 16:21:00,35.1,17.3,29.79,North,0,0.0,25.3,48,0.00,CLR,,0.00,WeatherDisplay:10.37,2013-01-16 21:21:00,
2013-01-16 16:26:00,35.1,18.3,29.81,West,270,17.8,28.8,50,0.00,CLR,,0.00,WeatherDisplay:10.37,2013-01-16 21:26:00,
2013-01-16 16:31:00,35.1,18.7,29.81,West,270,15.4,20.7,51,0.00,CLR,,0.00,WeatherDisplay:10.37,2013-01-16 21:31:00,
2013-01-16 16:36:00,35.1,19.2,29.81,West,270,18.5,24.2,52,0.00,CLR,,0.00,WeatherDisplay:10.37,2013-01-16 21:36:00,
2013-01-16 16:41:00,35.1,19.2,29.81,West,270,12.8,23.0,52,0.00,CLR,,0.00,WeatherDisplay:10.37,2013-01-16 21:41:00,
2013-01-16 16:46:00,35.1,19.6,29.82,West,270,18.5,27.6,53,0.00,CLR,,0.00,WeatherDisplay:10.37,2013-01-16 21:46:00,
2013-01-16 16:51:00,35.1,20.1,29.82,WNW,292,14.5,20.7,54,0.00,CLR,,0.00,WeatherDisplay:10.37,2013-01-16 21:51:00,
2013-01-16 16:56:00,35.1,20.1,29.82,East,90,19.4,27.6,54,0.00,CLR,,0.00,WeatherDisplay:10.37,2013-01-16 21:56:00,
2013-01-16 17:01:00,35.2,20.2,29.82,East,90,19.4,33.4,54,0.00,CLR,,0.00,WeatherDisplay:10.37,2013-01-16 22:01:00,
2013-01-16 17:06:00,35.2,20.7,29.83,East,90,14.5,28.8,55,0.00,CLR,,0.00,WeatherDisplay:10.37,2013-01-16 22:06:00,
2013-01-16 17:11:00,35.2,20.7,29.84,East,90,22.2,38.0,55,0.00,CLR,,0.00,WeatherDisplay:10.37,2013-01-16 22:11:00,
2013-01-16 17:16:00,35.1,21.3,29.85,East,90,15.4,25.3,57,0.01,RA,,0.01,WeatherDisplay:10.37,2013-01-16 22:16:00,
2013-01-16 17:21:00,35.1,22.2,29.86,East,90,16.5,24.2,59,0.01,RA,,0.01,WeatherDisplay:10.37,2013-01-16 22:21:00,
2013-01-16 17:26:00,34.9,23.2,29.86,NW,315,12.1,25.3,62,0.01,,,0.01,WeatherDisplay:10.37,2013-01-16 22:26:00,
2013-01-16 17:31:00,34.7,23.4,29.86,NW,315,11.4,19.6,63,0.01,CLR,,0.01,WeatherDisplay:10.37,2013-01-16 22:31:00,
2013-01-16 17:36:00,34.5,23.2,29.86,NW,315,12.8,20.7,63,0.01,CLR,,0.01,WeatherDisplay:10.37,2013-01-16 22:36:00,
2013-01-16 17:41:00,34.5,23.6,29.86,NW,315,11.4,21.9,64,0.01,CLR,,0.01,WeatherDisplay:10.37,2013-01-16 22:41:00,
2013-01-16 17:46:00,34.5,23.6,29.87,NW,315,11.4,19.6,64,0.01,CLR,,0.01,WeatherDisplay:10.37,2013-01-16 22:46:00,
2013-01-16 17:51:00,34.5,23.6,29.87,NW,315,8.8,23.0,64,0.01,CLR,,0.01,WeatherDisplay:10.37,2013-01-16 22:51:00,
2013-01-16 17:56:00,34.7,23.8,29.87,NW,315,11.4,20.7,64,0.01,CLR,,0.01,WeatherDisplay:10.37,2013-01-16 22:56:00,
2013-01-16 18:01:00,34.7,23.8,29.86,NW,315,14.5,21.9,64,0.01,CLR,,0.01,WeatherDisplay:10.37,2013-01-16 23:01:00,
2013-01-16 18:06:00,34.5,23.6,29.86,NW,315,16.1,17.3,64,0.01,CLR,,0.01,WeatherDisplay:10.37,2013-01-16 23:06:00,
2013-01-16 18:11:00,34.5,23.6,29.87,NW,315,13.8,20.7,64,0.01,CLR,,0.01,WeatherDisplay:10.37,2013-01-16 23:11:00,
2013-01-16 18:16:00,34.7,23.8,29.87,NW,315,10.4,15.0,64,0.00,CLR,,0.01,WeatherDisplay:10.37,2013-01-16 23:16:00,
2013-01-16 18:22:00,35.1,24.1,29.87,NW,315,12.1,20.7,64,0.00,CLR,,0.01,WeatherDisplay:10.37,2013-01-16 23:22:00,
2013-01-16 18:27:00,35.4,24.1,29.86,NW,315,12.8,17.3,63,0.00,CLR,,0.01,WeatherDisplay:10.37,2013-01-16 23:27:00,
2013-01-16 18:32:00,35.6,23.9,29.86,NW,315,16.1,20.7,62,0.00,CLR,,0.01,WeatherDisplay:10.37,2013-01-16 23:32:00,
2013-01-16 18:37:00,35.8,24.0,29.86,NW,315,12.8,16.1,62,0.00,CLR,,0.01,WeatherDisplay:10.37,2013-01-16 23:37:00,
2013-01-16 18:42:00,35.8,24.0,29.86,NW,315,10.4,20.7,62,0.00,CLR,,0.01,WeatherDisplay:10.37,2013-01-16 23:42:00,
2013-01-16 18:47:00,35.8,24.0,29.85,NW,315,15.4,23.0,62,0.00,CLR,,0.01,WeatherDisplay:10.37,2013-01-16 23:47:00,
2013-01-16 18:52:00,35.6,24.2,29.85,West,270,13.8,23.0,63,0.00,CLR,,0.01,WeatherDisplay:10.37,2013-01-16 23:52:00,
2013-01-16 18:57:00,35.4,24.8,29.85,West,270,12.1,25.3,65,0.00,CLR,,0.01,WeatherDisplay:10.37,2013-01-16 23:57:00,
2013-01-16 19:02:00,35.2,25.4,29.84,SW,225,12.8,20.7,67,0.00,CLR,,0.01,WeatherDisplay:10.37,2013-01-17 00:02:00,
2013-01-16 19:07:00,35.2,25.7,29.84,West,270,10.4,19.6,68,0.00,CLR,,0.01,WeatherDisplay:10.37,2013-01-17 00:07:00,
2013-01-16 19:12:00,35.2,25.7,29.84,West,270,12.1,18.4,68,0.00,CLR,,0.01,WeatherDisplay:10.37,2013-01-17 00:12:00,
2013-01-16 19:17:00,35.2,25.7,29.85,West,270,17.8,23.0,68,0.00,CLR,,0.01,WeatherDisplay:10.37,2013-01-17 00:17:00,
2013-01-16 19:22:00,35.2,26.1,29.85,West,270,11.4,17.3,69,0.00,CLR,,0.01,WeatherDisplay:10.37,2013-01-17 00:22:00,
2013-01-16 19:27:00,35.2,26.4,29.85,NW,315,10.4,23.0,70,0.00,CLR,,0.01,WeatherDisplay:10.37,2013-01-17 00:27:00,
2013-01-16 19:32:00,35.2,26.8,29.85,NW,315,7.4,12.7,71,0.00,CLR,,0.01,WeatherDisplay:10.37,2013-01-17 00:32:00,
2013-01-16 19:37:00,35.2,26.8,29.85,NW,315,12.8,20.7,71,0.00,CLR,,0.01,WeatherDisplay:10.37,2013-01-17 00:37:00,
2013-01-16 19:42:00,35.2,26.8,29.85,NW,315,12.8,17.3,71,0.00,CLR,,0.01,WeatherDisplay:10.37,2013-01-17 00:42:00,
2013-01-16 19:47:00,35.2,26.8,29.85,NW,315,11.4,17.3,71,0.00,CLR,,0.01,WeatherDisplay:10.37,2013-01-17 00:47:00,
2013-01-16 19:52:00,35.4,27.3,29.85,NW,315,11.4,17.3,72,0.00,CLR,,0.01,WeatherDisplay:10.37,2013-01-17 00:52:00,
2013-01-16 19:57:00,35.4,27.3,29.85,NW,315,10.4,15.0,72,0.00,CLR,,0.01,WeatherDisplay:10.37,2013-01-17 00:57:00,
2013-01-16 20:02:00,35.4,27.3,29.85,West,270,11.4,17.3,72,0.00,CLR,,0.01,WeatherDisplay:10.37,2013-01-17 01:02:00,
2013-01-16 20:07:00,35.4,26.9,29.85,West,270,12.1,13.8,71,0.00,CLR,,0.01,WeatherDisplay:10.37,2013-01-17 01:07:00,
2013-01-16 20:12:00,35.4,26.9,29.85,West,270,12.8,25.3,71,0.00,CLR,,0.01,WeatherDisplay:10.37,2013-01-17 01:12:00,
2013-01-16 20:17:00,35.6,26.8,29.86,West,270,12.1,17.3,70,0.00,CLR,,0.01,WeatherDisplay:10.37,2013-01-17 01:17:00,
2013-01-16 20:22:00,35.6,26.4,29.86,NW,315,8.1,15.0,69,0.00,CLR,,0.01,WeatherDisplay:10.37,2013-01-17 01:22:00,
2013-01-16 20:27:00,35.8,26.2,29.86,NW,315,7.4,17.3,68,0.00,CLR,,0.01,WeatherDisplay:10.37,2013-01-17 01:27:00,
2013-01-16 20:32:00,35.8,26.2,29.86,West,270,12.1,20.7,68,0.00,CLR,,0.01,WeatherDisplay:10.37,2013-01-17 01:32:00,
2013-01-16 20:37:00,35.8,26.2,29.87,West,270,12.1,20.7,68,0.00,CLR,,0.01,WeatherDisplay:10.37,2013-01-17 01:37:00,
2013-01-16 20:42:00,36.0,26.8,29.88,NW,315,8.1,17.3,69,0.00,CLR,,0.01,WeatherDisplay:10.37,2013-01-17 01:42:00,
2013-01-16 20:47:00,36.0,26.4,29.88,NW,315,8.1,23.0,68,0.00,CLR,,0.01,WeatherDisplay:10.37,2013-01-17 01:47:00,
2013-01-16 20:52:00,36.0,26.4,29.88,NW,315,9.7,19.6,68,0.00,CLR,,0.01,WeatherDisplay:10.37,2013-01-17 01:52:00,
2013-01-16 20:57:00,36.0,26.4,29.89,NW,315,7.4,15.0,68,0.00,CLR,,0.01,WeatherDisplay:10.37,2013-01-17 01:57:00,
2013-01-16 21:02:00,36.0,26.4,29.89,NW,315,9.7,13.8,68,0.00,CLR,,0.01,WeatherDisplay:10.37,2013-01-17 02:02:00,
2013-01-16 21:07:00,36.0,26.4,29.89,NW,315,8.8,23.0,68,0.00,CLR,,0.01,WeatherDisplay:10.37,2013-01-17 02:07:00,
2013-01-16 21:12:00,36.0,26.4,29.89,NW,315,10.4,17.3,68,0.00,CLR,,0.01,WeatherDisplay:10.37,2013-01-17 02:12:00,
2013-01-16 21:17:00,36.0,26.8,29.90,NW,315,8.8,17.3,69,0.00,CLR,,0.01,WeatherDisplay:10.37,2013-01-17 02:17:00,
2013-01-16 21:22:00,36.1,26.9,29.90,NW,315,8.8,18.4,69,0.00,CLR,,0.01,WeatherDisplay:10.37,2013-01-17 02:22:00,
2013-01-16 21:27:00,36.1,26.9,29.91,NW,315,5.7,17.3,69,0.00,CLR,,0.01,WeatherDisplay:10.37,2013-01-17 02:27:00,
2013-01-16 21:32:00,36.1,26.9,29.91,NW,315,12.1,16.1,69,0.00,CLR,,0.01,WeatherDisplay:10.37,2013-01-17 02:32:00,
2013-01-16 21:37:00,36.3,27.1,29.91,NW,315,7.4,17.3,69,0.00,CLR,,0.01,WeatherDisplay:10.37,2013-01-17 02:37:00,
2013-01-16 21:42:00,36.3,27.1,29.92,NW,315,10.4,16.1,69,0.00,CLR,,0.01,WeatherDisplay:10.37,2013-01-17 02:42:00,
2013-01-16 21:47:00,36.3,26.8,29.92,NW,315,11.4,16.1,68,0.00,CLR,,0.01,WeatherDisplay:10.37,2013-01-17 02:47:00,
2013-01-16 21:52:00,36.3,26.8,29.93,NW,315,8.1,9.2,68,0.00,CLR,,0.01,WeatherDisplay:10.37,2013-01-17 02:52:00,
2013-01-16 21:57:00,36.3,26.8,29.93,NW,315,9.7,18.4,68,0.00,CLR,,0.01,WeatherDisplay:10.37,2013-01-17 02:57:00,
2013-01-16 22:02:00,36.3,26.8,29.93,North,0,5.7,13.8,68,0.00,CLR,,0.01,WeatherDisplay:10.37,2013-01-17 03:02:00,
2013-01-16 22:07:00,36.3,26.8,29.93,North,0,6.8,15.0,68,0.00,CLR,,0.01,WeatherDisplay:10.37,2013-01-17 03:07:00,
2013-01-16 22:12:00,36.5,26.9,29.93,North,0,8.8,12.5,68,0.00,CLR,,0.01,WeatherDisplay:10.37,2013-01-17 03:12:00,
2013-01-16 22:17:00,36.5,26.9,29.94,North,0,5.7,8.1,68,0.00,CLR,,0.01,WeatherDisplay:10.37,2013-01-17 03:17:00,
2013-01-16 22:22:00,36.5,27.3,29.94,North,0,10.5,16.1,69,0.00,CLR,,0.01,WeatherDisplay:10.37,2013-01-17 03:22:00,
2013-01-16 22:27:00,36.5,27.3,29.95,North,0,11.7,15.0,69,0.00,CLR,,0.01,WeatherDisplay:10.37,2013-01-17 03:27:00,
2013-01-16 22:32:00,36.3,27.5,29.95,North,0,8.8,15.0,70,0.00,CLR,,0.01,WeatherDisplay:10.37,2013-01-17 03:32:00,
2013-01-16 22:37:00,36.3,27.5,29.95,North,0,6.8,17.3,70,0.00,CLR,,0.01,WeatherDisplay:10.37,2013-01-17 03:37:00,
2013-01-16 22:42:00,36.3,27.5,29.95,North,0,12.5,13.8,70,0.00,CLR,,0.01,WeatherDisplay:10.37,2013-01-17 03:42:00,
2013-01-16 22:47:00,36.5,27.6,29.95,North,0,10.5,21.9,70,0.00,CLR,,0.01,WeatherDisplay:10.37,2013-01-17 03:47:00,
2013-01-16 22:52:00,36.5,27.6,29.95,North,0,4.8,13.8,70,0.00,CLR,,0.01,WeatherDisplay:10.37,2013-01-17 03:52:00,
2013-01-16 22:57:00,36.5,27.6,29.95,North,0,11.7,11.7,70,0.00,CLR,,0.01,WeatherDisplay:10.37,2013-01-17 03:57:00,
2013-01-16 23:02:00,36.5,27.6,29.95,North,0,7.7,10.4,70,0.00,CLR,,0.01,WeatherDisplay:10.37,2013-01-17 04:02:00,
2013-01-16 23:07:00,36.5,27.6,29.95,North,0,8.8,16.1,70,0.00,CLR,,0.01,WeatherDisplay:10.37,2013-01-17 04:07:00,
2013-01-16 23:12:00,36.5,28.0,29.95,North,0,5.7,15.0,71,0.00,CLR,,0.01,WeatherDisplay:10.37,2013-01-17 04:12:00,
2013-01-16 23:17:00,36.5,28.0,29.95,North,0,5.7,9.2,71,0.00,CLR,,0.01,WeatherDisplay:10.37,2013-01-17 04:17:00,
2013-01-16 23:22:00,36.5,28.0,29.96,North,0,5.7,9.2,71,0.00,CLR,,0.01,WeatherDisplay:10.37,2013-01-17 04:22:00,
2013-01-16 23:27:00,36.5,28.0,29.96,North,0,10.5,15.0,71,0.00,CLR,,0.01,WeatherDisplay:10.37,2013-01-17 04:27:00,
2013-01-16 23:32:00,36.7,28.2,29.96,North,0,12.5,12.5,71,0.00,CLR,,0.01,WeatherDisplay:10.37,2013-01-17 04:32:00,
2013-01-16 23:37:00,36.7,28.2,29.97,North,0,4.8,13.8,71,0.00,CLR,,0.01,WeatherDisplay:10.37,2013-01-17 04:37:00,
2013-01-16 23:42:00,36.7,28.2,29.97,North,0,7.7,13.8,71,0.00,CLR,,0.01,WeatherDisplay:10.37,2013-01-17 04:42:00,
2013-01-16 23:47:00,36.7,28.2,29.98,North,0,4.0,11.5,71,0.00,CLR,,0.01,WeatherDisplay:10.37,2013-01-17 04:47:00,
2013-01-16 23:52:00,36.7,28.2,29.98,North,0,10.5,19.6,71,0.00,CLR,,0.01,WeatherDisplay:10.37,2013-01-17 04:52:00,
2013-01-16 23:57:00,36.9,28.3,29.99,North,0,8.8,11.5,71,0.00,CLR,,0.01,WeatherDisplay:10.37,2013-01-17 04:57:00,